createdAt,value
2023-11-15T00:02:08.860Z,32.72
2023-11-15T00:07:00.719Z,31.40
2023-11-15T00:11:52.571Z,32.47
2023-11-15T00:16:44.368Z,33.78
2023-11-15T00:21:36.229Z,33.55
2023-11-15T00:26:30.424Z,32.72
2023-11-15T00:31:23.248Z,32.75
2023-11-15T00:36:15.118Z,33.28
2023-11-15T00:41:09.431Z,31.58
2023-11-15T00:46:01.233Z,32.10
2023-11-15T00:50:53.128Z,32.72
2023-11-15T00:55:45.020Z,32.95
2023-11-15T01:00:49.111Z,31.33
2023-11-15T01:05:40.890Z,31.77
2023-11-15T01:10:35.846Z,31.33
2023-11-15T01:15:27.682Z,31.42
2023-11-15T01:20:19.482Z,31.08
2023-11-15T01:25:13.881Z,31.10
2023-11-15T01:30:06.416Z,31.35
2023-11-15T01:34:58.241Z,32.38
2023-11-15T01:39:50.020Z,33.03
2023-11-15T01:44:41.760Z,34.10
2023-11-15T01:49:33.711Z,31.27
2023-11-15T01:54:25.977Z,32.13
2023-11-15T01:59:17.970Z,33.38
2023-11-15T02:04:10.002Z,32.25
2023-11-15T02:09:01.943Z,33.75
2023-11-15T02:13:53.792Z,32.58
2023-11-15T02:18:45.583Z,32.13
2023-11-15T02:23:43.583Z,35.40
2023-11-15T02:28:35.328Z,33.60
2023-11-15T02:33:27.177Z,35.17
2023-11-15T02:38:19.032Z,33.15
2023-11-15T02:43:10.797Z,34.78
2023-11-15T02:48:03.273Z,33.53
2023-11-15T02:52:55.092Z,33.97
2023-11-15T02:57:46.957Z,34.17
2023-11-15T03:02:38.833Z,34.45
2023-11-15T03:07:30.590Z,37.13
2023-11-15T03:12:22.302Z,33.85
2023-11-15T03:17:16.973Z,33.35
2023-11-15T03:22:08.811Z,33.20
2023-11-15T03:27:00.627Z,34.60
2023-11-15T03:31:52.393Z,34.80
2023-11-15T03:36:44.321Z,35.13
2023-11-15T03:41:36.424Z,33.33
2023-11-15T03:46:28.366Z,33.20
2023-11-15T03:51:20.142Z,35.25
2023-11-15T03:56:11.987Z,32.85
2023-11-15T04:01:05.629Z,34.17
2023-11-15T04:05:57.761Z,35.33
2023-11-15T04:10:50.341Z,32.75
2023-11-15T04:15:42.185Z,32.90
2023-11-15T04:20:34.584Z,32.13
2023-11-15T04:25:26.404Z,31.38
2023-11-15T04:30:18.519Z,29.83
2023-11-15T04:35:10.367Z,33.53
2023-11-15T04:40:02.086Z,30.88
2023-11-15T04:44:54.074Z,31.80
2023-11-15T04:49:46.668Z,31.80
2023-11-15T04:54:38.488Z,30.25
2023-11-15T04:59:30.934Z,29.30
2023-11-15T05:04:23.502Z,28.05
2023-11-15T05:09:15.472Z,28.35
2023-11-15T05:14:08.119Z,28.75
2023-11-15T05:19:01.339Z,27.27
2023-11-15T05:23:53.559Z,27.45
2023-11-15T05:28:45.257Z,25.52
2023-11-15T05:33:37.137Z,25.02
2023-11-15T05:38:29.174Z,23.55
2023-11-15T05:43:21.259Z,23.25
2023-11-15T05:48:13.196Z,22.38
2023-11-15T05:53:06.870Z,21.13
2023-11-15T05:57:58.652Z,22.50
2023-11-15T06:02:52.042Z,20.33
2023-11-15T06:07:44.546Z,20.98
2023-11-15T06:12:36.631Z,20.45
2023-11-15T06:17:30.179Z,21.23
2023-11-15T06:22:24.289Z,20.48
2023-11-15T06:27:16.032Z,19.45
2023-11-15T06:32:07.883Z,18.88
2023-11-15T06:36:59.930Z,21.08
2023-11-15T06:41:51.682Z,21.58
2023-11-15T06:46:43.994Z,22.40
2023-11-15T06:51:35.791Z,25.95
2023-11-15T06:56:27.509Z,19.17
2023-11-15T07:01:19.331Z,18.95
2023-11-15T07:06:11.143Z,16.65
2023-11-15T07:11:03.031Z,19.92
2023-11-15T07:15:54.936Z,19.23
2023-11-15T07:20:48.054Z,18.38
2023-11-15T07:25:39.963Z,16.55
2023-11-15T07:30:34.226Z,17.05
2023-11-15T07:35:27.428Z,17.77
2023-11-15T07:40:19.334Z,16.52
2023-11-15T07:45:11.443Z,17.50
2023-11-15T07:50:04.249Z,16.10
2023-11-15T07:54:59.973Z,14.52
2023-11-15T07:59:53.691Z,18.00
2023-11-15T08:04:45.696Z,15.18
2023-11-15T08:09:37.541Z,17.50
2023-11-15T08:14:31.979Z,15.43
2023-11-15T08:19:23.929Z,14.80
2023-11-15T08:24:22.607Z,14.13
2023-11-15T08:29:14.729Z,14.30
2023-11-15T08:34:06.824Z,13.75
2023-11-15T08:38:59.361Z,14.32
2023-11-15T08:43:51.181Z,14.55
2023-11-15T08:48:43.497Z,15.25
2023-11-15T08:53:36.111Z,15.98
2023-11-15T08:58:30.786Z,14.15
2023-11-15T09:03:22.549Z,14.45
2023-11-15T09:08:15.630Z,17.85
2023-11-15T09:13:11.203Z,15.55
2023-11-15T09:18:07.707Z,15.93
2023-11-15T09:22:59.508Z,15.85
2023-11-15T09:27:53.882Z,16.50
2023-11-15T09:32:51.643Z,16.92
2023-11-15T09:37:44.419Z,17.25
2023-11-15T09:42:40.013Z,17.17
2023-11-15T09:47:32.134Z,16.40
2023-11-15T09:52:25.813Z,18.23
2023-11-15T09:57:20.906Z,17.63
2023-11-15T10:02:12.752Z,19.30
2023-11-15T10:07:06.870Z,18.42
2023-11-15T10:12:03.255Z,18.17
2023-11-15T10:16:55.738Z,17.23
2023-11-15T10:22:05.719Z,19.45
2023-11-15T10:27:12.445Z,18.98
2023-11-15T10:32:05.104Z,19.17
2023-11-15T10:37:11.413Z,18.83
2023-11-15T10:42:03.920Z,18.60
2023-11-15T10:47:03.028Z,20.88
2023-11-15T10:51:55.766Z,22.40
2023-11-15T10:56:50.904Z,20.27
2023-11-15T11:01:42.998Z,19.88
2023-11-15T11:07:09.133Z,19.85
2023-11-15T11:12:07.204Z,20.38
2023-11-15T11:17:00.355Z,20.65
2023-11-15T11:22:03.935Z,19.85
2023-11-15T11:26:55.770Z,20.70
2023-11-15T11:32:17.707Z,21.30
2023-11-15T11:37:09.504Z,19.23
2023-11-15T11:42:01.354Z,19.13
2023-11-15T11:47:04.085Z,19.17
2023-11-15T11:51:56.520Z,19.75
2023-11-15T11:56:50.455Z,19.58
2023-11-15T12:01:51.741Z,19.42
2023-11-15T12:06:43.739Z,20.85
2023-11-15T12:11:35.984Z,20.17
2023-11-15T12:16:28.827Z,18.85
2023-11-15T12:21:22.524Z,21.58
2023-11-15T12:26:16.035Z,17.77
2023-11-15T12:31:09.745Z,16.98
2023-11-15T12:36:04.107Z,14.07
2023-11-15T12:41:07.412Z,15.55
2023-11-15T12:46:01.068Z,16.52
2023-11-15T12:51:03.737Z,15.57
2023-11-15T12:55:55.819Z,16.23
2023-11-15T13:01:01.285Z,15.45
2023-11-15T13:06:18.698Z,15.93
2023-11-15T13:11:14.523Z,15.32
2023-11-15T13:16:13.616Z,14.25
2023-11-15T13:21:08.437Z,13.88
2023-11-15T13:26:03.722Z,12.70
2023-11-15T13:30:55.825Z,14.30
2023-11-15T13:35:47.891Z,13.10
2023-11-15T13:40:42.798Z,12.73
2023-11-15T13:45:34.735Z,11.95
2023-11-15T13:50:26.565Z,12.73
2023-11-15T13:55:18.419Z,12.50
2023-11-15T14:06:29.971Z,13.15
2023-11-15T14:11:23.155Z,11.48
2023-11-15T14:16:15.301Z,11.25
2023-11-15T14:21:07.400Z,12.55
2023-11-15T14:26:00.012Z,10.38
2023-11-15T14:30:53.374Z,9.63
2023-11-15T14:35:45.174Z,9.05
2023-11-15T14:40:39.972Z,9.40
2023-11-15T14:45:34.041Z,9.55
2023-11-15T14:50:26.880Z,9.13
2023-11-15T14:55:19.658Z,8.32
2023-11-15T15:00:17.855Z,6.80
2023-11-15T15:05:10.122Z,13.30
2023-11-15T15:10:02.507Z,9.63
2023-11-15T15:14:54.216Z,10.48
2023-11-15T15:19:46.253Z,9.40
2023-11-15T15:24:38.132Z,6.35
2023-11-15T15:29:29.948Z,9.10
2023-11-15T15:34:23.333Z,9.07
2023-11-15T15:39:16.699Z,7.78
2023-11-15T15:44:09.589Z,9.52
2023-11-15T15:49:01.736Z,7.95
2023-11-15T15:53:54.201Z,5.70
2023-11-15T15:58:46.016Z,4.97
2023-11-15T16:03:37.993Z,4.88
2023-11-15T16:08:29.762Z,5.13
2023-11-15T16:13:21.510Z,5.00
2023-11-15T16:18:13.410Z,4.80
2023-11-15T16:23:05.900Z,4.28
2023-11-15T16:27:57.639Z,4.20
2023-11-15T16:32:49.437Z,4.60
2023-11-15T16:37:42.982Z,4.93
2023-11-15T16:42:35.823Z,4.25
2023-11-15T16:47:27.570Z,4.07
2023-11-15T16:52:20.059Z,4.10
2023-11-15T16:57:12.106Z,3.17
2023-11-15T17:02:04.044Z,3.00
2023-11-15T17:06:57.353Z,2.75
2023-11-15T17:11:51.504Z,3.00
2023-11-15T17:16:45.492Z,3.63
2023-11-15T17:21:40.552Z,3.10
2023-11-15T17:26:32.500Z,2.53
2023-11-15T17:31:25.708Z,2.20
2023-11-15T17:36:17.794Z,2.55
2023-11-15T17:41:10.963Z,1.65
2023-11-15T17:46:03.963Z,2.13
2023-11-15T17:50:55.647Z,1.70
2023-11-15T17:55:47.411Z,1.02
2023-11-15T18:00:39.742Z,1.77
2023-11-15T18:05:31.602Z,1.92
2023-11-15T18:10:28.657Z,2.13
2023-11-15T18:15:21.113Z,2.63
2023-11-15T18:20:13.495Z,1.30
2023-11-15T18:25:05.597Z,1.27
2023-11-15T18:29:59.630Z,1.33
2023-11-15T18:34:51.359Z,1.13
2023-11-15T18:39:43.097Z,2.67
2023-11-15T18:44:34.871Z,1.00
2023-11-15T18:49:26.610Z,2.17
2023-11-15T18:54:18.448Z,2.47
2023-11-15T18:59:10.248Z,3.22
2023-11-15T19:04:02.502Z,4.05
2023-11-15T19:08:54.527Z,2.42
2023-11-15T19:13:47.767Z,2.10
2023-11-15T19:18:39.621Z,1.67
2023-11-15T19:23:31.370Z,1.60
2023-11-15T19:28:23.091Z,1.08
2023-11-15T19:33:15.443Z,2.60
2023-11-15T19:38:07.491Z,2.17
2023-11-15T19:42:59.323Z,1.60
2023-11-15T19:47:51.248Z,1.10
2023-11-15T19:52:45.356Z,1.20
2023-11-15T19:57:38.467Z,1.48
2023-11-15T20:02:34.691Z,1.00
2023-11-15T20:07:32.942Z,1.10
2023-11-15T20:12:24.948Z,1.00
2023-11-15T20:17:16.819Z,1.85
2023-11-15T20:22:08.834Z,1.15
2023-11-15T20:27:00.607Z,0.88
2023-11-15T20:31:52.524Z,1.20
2023-11-15T20:36:44.459Z,1.00
2023-11-15T20:41:37.001Z,3.38
2023-11-15T20:46:28.870Z,1.10
2023-11-15T20:51:22.376Z,1.15
2023-11-15T20:56:14.920Z,1.42
2023-11-15T21:01:07.838Z,2.15
2023-11-15T21:06:04.826Z,19.10
2023-11-15T21:10:57.145Z,19.13
2023-11-15T21:15:49.148Z,9.63
2023-11-15T21:20:41.549Z,4.85
2023-11-15T21:25:34.954Z,8.50
2023-11-15T21:30:26.951Z,7.82
2023-11-15T21:35:19.200Z,3.10
2023-11-15T21:40:16.975Z,3.38
2023-11-15T21:45:08.979Z,5.30
2023-11-15T21:50:01.456Z,3.25
2023-11-15T21:54:53.497Z,3.75
2023-11-15T21:59:45.744Z,2.58
2023-11-15T22:04:37.856Z,4.20
2023-11-15T22:09:29.692Z,2.65
2023-11-15T22:14:21.601Z,2.25
2023-11-15T22:19:13.421Z,1.67
2023-11-15T22:24:06.369Z,1.20
2023-11-15T22:28:58.157Z,1.55
2023-11-15T22:33:52.575Z,1.42
2023-11-15T22:38:45.525Z,4.93
2023-11-15T22:43:37.967Z,0.98
2023-11-15T22:48:29.763Z,1.60
2023-11-15T22:53:22.076Z,0.88
2023-11-15T22:58:13.921Z,0.90
2023-11-15T23:03:11.210Z,1.20
2023-11-15T23:08:04.369Z,0.95
2023-11-15T23:12:56.124Z,0.47
2023-11-15T23:17:50.962Z,0.65
2023-11-15T23:22:43.549Z,2.05
2023-11-15T23:27:38.397Z,0.90
2023-11-15T23:32:31.851Z,0.88
2023-11-15T23:37:23.728Z,0.43
2023-11-15T23:42:15.650Z,0.57
2023-11-15T23:47:07.575Z,1.17
2023-11-15T23:51:59.461Z,1.52
2023-11-15T23:56:51.212Z,0.50
